KELM/ELM METAR and TAF weather

Enter ICAO airport designator
Station Type Date Time Source
KELM METAR 2018/10/21 05:53 UTC NOAA

KELM 210553Z AUTO 30007KT 10SM OVC070 06/03 A2973 RMK AO2 RAE52 SLP070 P0001 60012 T00560028 10072 20056 53012


Station Type Date Time Source
KELM Decoded METAR 2018/10/21 05:53 UTC NOAA

ELMIRA COUNTY AIRPORT, NY, United States (KELM) 42-10N 76-54W 302M
Oct 21, 2018 - 01:53 AM EDT / 2018.10.21 0553 UTC
Wind: from the WNW (300 degrees) at 8 MPH (7 KT):0
Visibility: 10 mile(s):0
Sky conditions: overcast
Precipitation last hour: 0.01 inches
Temperature: 42.1 F (5.6 C)
Dew Point: 37.0 F (2.8 C)
Relative Humidity: 82%
Pressure (altimeter): 29.73 in. Hg (1006 hPa)
Pressure tendency: 0.04 inches (1.2 hPa) higher than three hours ago
ob: KELM 210553Z AUTO 30007KT 10SM OVC070 06/03 A2973 RMK AO2 RAE52 SLP070 P0001 60012 T00560028 10072 20056 53012
cycle: 6

Station Type Date Time Source
KELM TAF 2018/10/21 06:36 UTC NOAA

TAF KELM 210534Z 2106/2206 32008KT P6SM SCT025 OVC040
TEMPO 2106/2108 -SHRASN OVC025
FM211000 32012G22KT P6SM SCT025 OVC040
TEMPO 2110/2114 2SM -SHSN OVC025
FM211500 31015G25KT P6SM BKN045
FM220000 30008KT P6SM BKN045


Example: see airport list